Time;durP1;ratioP1;P1;durP2;ratioP2;P2;SDS_P1;SDS_P2;PMS_P1;PMS_P2;Temp;Humidity;BMP_temperature;BMP_pressure;BME280_temperature;BME280_humidity;BME280_pressure;Samples;Min_cycle;Max_cycle;Signal;HPM_P1;HPM_P2
2022/04/24 00:00:47;;;;;;;9.63;5.03;;;;;;;19.62;55.99;98274.88;5089917;28;20196;-62
2022/04/24 00:03:12;;;;;;;10.07;5.60;;;;;;;19.61;55.59;98278.19;5089880;28;20232;-62
2022/04/24 00:05:38;;;;;;;8.30;5.50;;;;;;;19.61;55.89;98273.25;5089929;28;20228;-62
2022/04/24 00:08:04;;;;;;;9.97;5.57;;;;;;;19.60;55.70;98271.63;5090200;28;20233;-62
2022/04/24 00:10:30;;;;;;;8.00;5.20;;;;;;;19.61;55.64;98261.00;5090655;28;20181;-62
2022/04/24 00:12:55;;;;;;;9.23;5.30;;;;;;;19.58;55.88;98265.56;5090024;28;20909;-62
2022/04/24 00:15:20;;;;;;;9.30;5.63;;;;;;;19.61;55.76;98266.75;5091837;28;20178;-62
2022/04/24 00:17:46;;;;;;;7.30;5.20;;;;;;;19.59;55.79;98257.75;5089285;28;20207;-62
2022/04/24 00:20:12;;;;;;;7.20;5.27;;;;;;;19.58;56.09;98261.88;5072915;28;20190;-62
2022/04/24 00:22:37;;;;;;;8.83;5.03;;;;;;;19.58;55.74;98259.84;5071080;28;20164;-62
2022/04/24 00:25:03;;;;;;;7.73;5.27;;;;;;;19.58;55.55;98259.84;5084596;28;20179;-62
2022/04/24 00:27:28;;;;;;;8.50;5.17;;;;;;;19.59;55.71;98261.44;5093983;28;20236;-62
2022/04/24 00:29:54;;;;;;;9.00;4.60;;;;;;;19.58;55.62;98259.84;5094788;28;20174;-62
2022/04/24 00:32:19;;;;;;;7.33;4.60;;;;;;;19.58;55.68;98259.84;5095081;28;20563;-62
2022/04/24 00:34:44;;;;;;;9.00;5.53;;;;;;;19.57;55.71;98261.06;5095136;28;20170;-62
2022/04/24 00:37:10;;;;;;;10.33;5.10;;;;;;;19.56;56.05;98268.03;5094965;28;20201;-62
2022/04/24 00:39:35;;;;;;;7.90;5.00;;;;;;;19.58;55.74;98268.41;5094923;28;20572;-62
2022/04/24 00:42:01;;;;;;;6.10;4.37;;;;;;;19.57;55.70;98275.38;5094653;28;20175;-62
2022/04/24 00:44:27;;;;;;;6.80;5.30;;;;;;;19.59;55.85;98266.34;5094912;28;20511;-62
2022/04/24 00:46:57;;;;;;;7.57;4.70;;;;;;;19.57;55.66;98268.84;5079547;28;20225;-62
2022/04/24 00:49:22;;;;;;;9.17;5.40;;;;;;;19.58;55.93;98279.06;5074650;28;20907;-62
2022/04/24 00:51:48;;;;;;;10.20;5.03;;;;;;;19.58;56.05;98282.72;5076964;28;20439;-62
2022/04/24 00:54:13;;;;;;;6.90;5.00;;;;;;;19.58;55.77;98279.88;5056466;28;20221;-62
2022/04/24 00:56:40;;;;;;;7.53;4.73;;;;;;;19.58;56.54;98282.72;5089390;28;20182;-63
2022/04/24 00:59:07;;;;;;;6.80;5.17;;;;;;;19.57;55.97;98295.41;5094705;28;20186;-62
2022/04/24 01:01:32;;;;;;;6.63;4.80;;;;;;;19.56;55.86;98295.88;5094825;28;20863;-62
2022/04/24 01:04:01;;;;;;;8.57;5.20;;;;;;;19.57;55.85;98298.25;5094583;28;20434;-62
2022/04/24 01:06:27;;;;;;;8.00;4.57;;;;;;;19.56;55.75;98301.59;5094597;28;20205;-62
2022/04/24 01:08:53;;;;;;;7.23;4.80;;;;;;;19.56;56.39;98305.25;5094129;28;20463;-63
2022/04/24 01:11:19;;;;;;;7.00;4.57;;;;;;;19.56;55.99;98313.03;5094152;28;20785;-62
2022/04/24 01:13:44;;;;;;;7.47;4.40;;;;;;;19.56;55.85;98313.81;5094402;28;20581;-62
2022/04/24 01:16:10;;;;;;;7.37;4.97;;;;;;;19.55;55.78;98317.94;5094229;28;20189;-62
2022/04/24 01:18:36;;;;;;;7.23;5.37;;;;;;;19.56;56.10;98321.63;5094209;28;20570;-62
2022/04/24 01:21:08;;;;;;;8.00;5.03;;;;;;;19.56;55.88;98322.41;5094126;28;20174;-62
2022/04/24 01:23:34;;;;;;;5.60;4.30;;;;;;;19.56;55.85;98328.13;5094252;28;20182;-62
2022/04/24 01:25:59;;;;;;;6.80;4.60;;;;;;;19.56;55.86;98328.13;5093842;28;20412;-62
2022/04/24 01:28:24;;;;;;;7.17;4.90;;;;;;;19.56;56.03;98338.81;5091737;28;20201;-62
2022/04/24 01:30:50;;;;;;;7.37;5.20;;;;;;;19.56;55.74;98333.88;5073703;28;20171;-62
2022/04/24 01:33:15;;;;;;;6.27;4.60;;;;;;;19.53;56.03;98334.75;5082445;28;20187;-62
2022/04/24 01:35:41;;;;;;;6.57;4.63;;;;;;;19.55;55.68;98340.00;5073834;28;20276;-62
2022/04/24 01:38:06;;;;;;;7.40;4.83;;;;;;;19.55;55.85;98348.59;5072538;28;20646;-62
2022/04/24 01:40:32;;;;;;;8.57;5.50;;;;;;;19.54;56.26;98342.09;5081498;28;20202;-62
2022/04/24 01:42:57;;;;;;;8.00;4.67;;;;;;;19.53;56.03;98342.50;5093819;28;20181;-62
2022/04/24 01:45:22;;;;;;;11.03;4.90;;;;;;;19.54;55.94;98349.84;5093614;28;20198;-62
2022/04/24 01:47:48;;;;;;;5.60;4.23;;;;;;;19.52;56.00;98347.41;5093772;28;20181;-62
2022/04/24 01:50:13;;;;;;;7.20;5.03;;;;;;;19.52;55.93;98341.69;5093931;28;20215;-62
2022/04/24 01:52:39;;;;;;;8.00;4.60;;;;;;;19.53;55.89;98340.47;5093702;28;20193;-62
2022/04/24 01:55:04;;;;;;;9.43;5.80;;;;;;;19.52;56.00;98344.56;5093789;28;20181;-62
2022/04/24 01:57:30;;;;;;;6.67;4.70;;;;;;;19.51;55.95;98351.53;5093370;28;20199;-62
2022/04/24 01:59:55;;;;;;;5.50;4.40;;;;;;;19.53;56.12;98351.09;5093450;28;20174;-62
2022/04/24 02:02:21;;;;;;;5.53;4.27;;;;;;;19.52;56.28;98347.41;5093407;28;20190;-62
2022/04/24 02:04:46;;;;;;;6.70;4.37;;;;;;;19.52;55.91;98356.00;5093742;28;20166;-62
2022/04/24 02:07:11;;;;;;;8.10;4.90;;;;;;;19.51;56.23;98351.53;5093112;28;20226;-62
2022/04/24 02:09:39;;;;;;;7.17;5.20;;;;;;;19.50;56.14;98346.25;5092949;28;20175;-62
2022/04/24 02:12:05;;;;;;;6.43;4.33;;;;;;;19.51;55.86;98350.75;5093504;28;20182;-62
2022/04/24 02:14:30;;;;;;;7.17;4.47;;;;;;;19.51;55.91;98354.41;5093295;28;20911;-62
2022/04/24 02:16:56;;;;;;;6.90;4.50;;;;;;;19.52;56.44;98358.88;5092986;28;20456;-62
2022/04/24 02:19:21;;;;;;;10.00;4.77;;;;;;;19.51;55.90;98371.56;5093370;28;20163;-62
2022/04/24 02:21:47;;;;;;;7.43;4.30;;;;;;;19.50;56.34;98372.81;5092836;28;20178;-62
2022/04/24 02:24:12;;;;;;;6.43;4.53;;;;;;;19.50;55.79;98363.41;5092774;28;20179;-62
2022/04/24 02:26:37;;;;;;;7.90;4.10;;;;;;;19.50;56.21;98372.81;5083577;28;20179;-62
2022/04/24 02:29:03;;;;;;;8.07;5.20;;;;;;;19.52;55.89;98367.47;5072654;28;20175;-62
2022/04/24 02:31:28;;;;;;;7.37;4.70;;;;;;;19.51;56.26;98359.31;5073637;28;20198;-62
2022/04/24 02:33:54;;;;;;;7.80;4.50;;;;;;;19.49;55.97;98368.34;5093013;28;20178;-62
2022/04/24 02:36:19;;;;;;;7.20;4.20;;;;;;;19.51;56.59;98371.56;5092762;28;20158;-62
2022/04/24 02:38:45;;;;;;;8.63;4.93;;;;;;;19.50;56.71;98375.69;5092665;28;20205;-62
2022/04/24 02:41:10;;;;;;;5.50;4.00;;;;;;;19.51;56.03;98382.22;5092264;28;20539;-62
2022/04/24 02:43:36;;;;;;;5.27;4.00;;;;;;;19.52;55.85;98386.69;5091279;28;20189;-62
2022/04/24 02:46:01;;;;;;;5.30;4.23;;;;;;;19.51;56.00;98382.22;5092305;28;20198;-62
2022/04/24 02:48:27;;;;;;;6.50;4.13;;;;;;;19.50;56.08;98383.44;5092754;28;20210;-62
2022/04/24 02:50:57;;;;;;;5.70;4.17;;;;;;;19.50;56.42;98387.13;5092510;28;20629;-62
2022/04/24 02:53:23;;;;;;;4.33;3.70;;;;;;;19.50;56.08;98415.75;5057621;28;20547;-62
2022/04/24 02:55:48;;;;;;;5.10;3.70;;;;;;;19.49;56.38;98413.31;5074736;28;20413;-62
2022/04/24 02:58:19;;;;;;;7.20;4.87;;;;;;;19.50;56.01;98410.03;5072203;28;20203;-63
2022/04/24 03:00:49;;;;;;;4.93;3.63;;;;;;;19.50;55.90;98415.75;5072043;28;20171;-61
2022/04/24 03:03:16;;;;;;;8.57;4.77;;;;;;;19.51;56.39;98419.44;5089235;28;20431;-62
2022/04/24 03:05:48;;;;;;;5.00;4.03;;;;;;;19.49;56.08;98425.59;5092405;28;20420;-62
2022/04/24 03:08:18;;;;;;;4.80;3.67;;;;;;;19.50;55.92;98426.38;5092094;28;20545;-62
2022/04/24 03:10:44;;;;;;;6.93;4.67;;;;;;;19.49;55.99;98427.63;5092270;28;20892;-62
2022/04/24 03:13:10;;;;;;;8.20;4.60;;;;;;;19.49;55.92;98430.47;5092061;28;20423;-62
2022/04/24 03:15:36;;;;;;;7.17;4.53;;;;;;;19.49;55.90;98436.22;5092039;28;20189;-62
2022/04/24 03:18:02;;;;;;;9.80;4.80;;;;;;;19.50;55.95;98438.66;5075991;28;20970;-62
2022/04/24 03:20:28;;;;;;;5.97;3.90;;;;;;;19.48;55.94;98440.31;5065375;28;20561;-62
2022/04/24 03:22:53;;;;;;;8.20;4.27;;;;;;;19.47;56.14;98436.63;5051656;28;20642;-62
2022/04/24 03:25:19;;;;;;;7.90;4.73;;;;;;;19.48;56.07;98441.16;5051774;28;20514;-62
2022/04/24 03:27:44;;;;;;;5.47;4.30;;;;;;;19.47;56.11;98438.72;5051475;28;20541;-62
2022/04/24 03:30:10;;;;;;;5.57;3.87;;;;;;;19.48;56.25;98435.41;5051568;28;20310;-62
2022/04/24 03:32:36;;;;;;;5.73;3.97;;;;;;;19.48;56.12;98444.00;5061754;28;20187;-62
2022/04/24 03:35:03;;;;;;;7.83;4.43;;;;;;;19.47;55.91;98450.94;5071359;28;20289;-62
2022/04/24 03:37:28;;;;;;;5.67;3.93;;;;;;;19.46;56.49;98455.06;5062227;28;20925;-62
2022/04/24 03:39:54;;;;;;;5.67;3.80;;;;;;;19.47;56.11;98458.75;5073767;28;20429;-62
2022/04/24 03:42:19;;;;;;;6.00;4.03;;;;;;;19.46;56.36;98457.91;5071419;28;20250;-62
2022/04/24 03:44:45;;;;;;;7.23;4.30;;;;;;;19.47;55.98;98458.75;5071824;28;20175;-62
2022/04/24 03:47:10;;;;;;;4.73;3.90;;;;;;;19.46;56.36;98457.91;5071358;28;20195;-62
2022/04/24 03:49:36;;;;;;;5.40;3.70;;;;;;;19.46;56.20;98465.72;5071627;28;20179;-62
2022/04/24 03:52:01;;;;;;;5.80;4.20;;;;;;;19.46;56.08;98472.22;5071392;28;20175;-62
2022/04/24 03:54:27;;;;;;;6.27;4.30;;;;;;;19.47;56.04;98473.06;5071427;28;20654;-62
2022/04/24 03:56:52;;;;;;;5.07;3.90;;;;;;;19.46;56.07;98477.94;5071612;28;20260;-62
2022/04/24 03:59:17;;;;;;;4.60;3.70;;;;;;;19.45;56.13;98487.78;5071323;28;20175;-62
2022/04/24 04:01:43;;;;;;;5.03;3.60;;;;;;;19.46;55.95;98486.53;5070147;28;20222;-62
2022/04/24 04:04:08;;;;;;;5.73;3.83;;;;;;;19.46;56.17;98500.84;5055317;28;20168;-62
2022/04/24 04:06:34;;;;;;;6.13;4.33;;;;;;;19.46;55.75;98502.91;5055857;28;20160;-62
2022/04/24 04:08:59;;;;;;;5.97;4.07;;;;;;;19.45;56.31;98507.00;5075254;28;20190;-62
2022/04/24 04:11:26;;;;;;;6.03;4.33;;;;;;;19.46;56.12;98514.38;5057308;28;20182;-62
2022/04/24 04:13:52;;;;;;;6.53;4.00;;;;;;;19.45;56.68;98504.97;5075518;28;20265;-62
2022/04/24 04:16:17;;;;;;;6.30;4.00;;;;;;;19.44;56.00;98509.06;5080520;28;20424;-62
2022/04/24 04:18:42;;;;;;;9.50;4.00;;;;;;;19.44;56.33;98511.94;5095493;28;20198;-62
2022/04/24 04:21:08;;;;;;;5.83;3.70;;;;;;;19.45;56.13;98507.81;5094719;28;20174;-62
2022/04/24 04:23:33;;;;;;;6.53;4.20;;;;;;;19.45;56.09;98509.84;5095672;28;20181;-62
2022/04/24 04:25:59;;;;;;;4.80;3.87;;;;;;;19.44;55.99;98520.50;5095192;28;20181;-62
2022/04/24 04:28:24;;;;;;;7.20;4.70;;;;;;;19.44;55.90;98523.38;5095494;28;20159;-62
2022/04/24 04:30:50;;;;;;;6.40;3.77;;;;;;;19.45;56.32;98527.03;5095061;28;20261;-62
2022/04/24 04:33:15;;;;;;;5.10;3.73;;;;;;;19.44;56.23;98531.97;5095002;28;20193;-62
2022/04/24 04:35:41;;;;;;;7.80;4.20;;;;;;;19.43;55.95;98526.66;5095020;28;20186;-62
2022/04/24 04:38:06;;;;;;;5.00;3.77;;;;;;;19.42;56.24;98534.44;5077154;28;20641;-62
2022/04/24 04:40:31;;;;;;;4.43;3.70;;;;;;;19.45;56.29;98538.47;5074790;28;20179;-62
2022/04/24 04:42:57;;;;;;;5.20;3.77;;;;;;;19.43;56.23;98540.97;5074672;28;20175;-62
2022/04/24 04:45:24;;;;;;;4.47;3.60;;;;;;;19.43;56.05;98553.25;5074813;28;20199;-62
2022/04/24 04:47:50;;;;;;;6.00;4.43;;;;;;;19.44;55.88;98557.72;5074452;28;20171;-62
2022/04/24 04:50:15;;;;;;;4.70;3.20;;;;;;;19.44;55.98;98559.75;5074688;28;20421;-62
2022/04/24 04:52:41;;;;;;;5.37;3.73;;;;;;;19.44;56.02;98572.03;5076950;28;20174;-62
2022/04/24 04:55:07;;;;;;;5.20;3.83;;;;;;;19.42;56.13;98565.91;5075114;28;20178;-62
2022/04/24 04:57:32;;;;;;;5.00;3.50;;;;;;;19.41;56.04;98567.16;5075755;28;20203;-62
2022/04/24 04:59:58;;;;;;;4.77;3.90;;;;;;;19.43;56.34;98569.59;5074307;28;20654;-62
2022/04/24 05:02:23;;;;;;;5.10;3.83;;;;;;;19.41;56.11;98572.88;5080790;28;20194;-62
2022/04/24 05:04:49;;;;;;;5.47;4.00;;;;;;;19.41;56.18;98572.88;5088425;28;20637;-62
2022/04/24 05:07:14;;;;;;;6.40;4.33;;;;;;;19.42;56.29;98574.50;5093950;28;20447;-62
2022/04/24 05:09:40;;;;;;;4.90;3.70;;;;;;;19.42;56.05;98579.41;5094188;28;20178;-62
2022/04/24 05:12:07;;;;;;;5.10;3.50;;;;;;;19.42;56.13;98583.06;5094223;28;20172;-62
2022/04/24 05:14:32;;;;;;;5.53;4.03;;;;;;;19.41;56.12;98581.47;5066477;28;20171;-62
2022/04/24 05:16:58;;;;;;;4.30;3.50;;;;;;;19.41;56.11;98578.59;5080638;28;20467;-62
2022/04/24 05:19:24;;;;;;;5.23;3.40;;;;;;;19.42;56.16;98579.41;5094461;28;20166;-62
2022/04/24 05:21:49;;;;;;;4.90;3.40;;;;;;;19.41;56.16;98575.75;5094062;28;20174;-62
2022/04/24 05:24:15;;;;;;;4.73;3.33;;;;;;;19.42;56.02;98588.81;5094231;28;20412;-62
2022/04/24 05:26:40;;;;;;;4.00;3.40;;;;;;;19.40;56.04;98579.84;5093871;28;20535;-62
2022/04/24 05:29:07;;;;;;;5.23;3.70;;;;;;;19.40;56.12;98585.56;5094107;28;20174;-62
2022/04/24 05:31:32;;;;;;;4.60;3.47;;;;;;;19.40;56.00;98585.56;5079061;28;20168;-62
2022/04/24 05:33:58;;;;;;;4.90;3.43;;;;;;;19.41;56.03;98590.03;5091786;28;20424;-62
2022/04/24 05:36:23;;;;;;;5.40;3.77;;;;;;;19.41;56.35;98592.91;5091786;28;20182;-62
2022/04/24 05:38:48;;;;;;;5.30;3.40;;;;;;;19.39;55.98;98601.13;5091828;28;20186;-62
2022/04/24 05:41:14;;;;;;;4.60;3.63;;;;;;;19.40;56.12;98608.47;5093212;28;20613;-62
2022/04/24 05:43:39;;;;;;;4.23;3.17;;;;;;;19.39;55.88;98603.16;5075629;28;20178;-62
2022/04/24 05:46:05;;;;;;;6.03;4.20;;;;;;;19.38;56.06;98608.09;5093480;28;20210;-62
2022/04/24 05:48:31;;;;;;;4.60;3.27;;;;;;;19.40;55.79;98610.50;5075175;28;20170;-62
2022/04/24 05:50:57;;;;;;;5.33;3.60;;;;;;;19.39;56.06;98615.44;5093607;28;20253;-62
2022/04/24 05:53:22;;;;;;;4.73;3.80;;;;;;;19.38;56.34;98610.94;5093451;28;20412;-62
2022/04/24 05:55:47;;;;;;;5.00;3.60;;;;;;;19.40;56.13;98610.50;5093755;28;20170;-62
2022/04/24 05:58:13;;;;;;;5.10;3.60;;;;;;;19.37;56.22;98612.16;5093164;28;20198;-62
2022/04/24 06:00:38;;;;;;;4.97;3.50;;;;;;;19.37;56.39;98606.44;5093617;28;20173;-62
2022/04/24 06:03:04;;;;;;;6.83;3.80;;;;;;;19.39;55.87;98609.72;5092943;28;20544;-62
2022/04/24 06:05:30;;;;;;;4.87;3.40;;;;;;;19.39;56.72;98612.56;5075354;28;20147;-62
2022/04/24 06:07:55;;;;;;;4.80;3.57;;;;;;;19.40;55.86;98605.59;5092987;28;20210;-62
2022/04/24 06:10:20;;;;;;;4.07;3.47;;;;;;;19.38;56.10;98613.81;5093407;28;20170;-62
2022/04/24 06:12:53;;;;;;;4.73;3.67;;;;;;;19.38;55.96;98613.81;5093026;28;20262;-62
2022/04/24 06:15:21;;;;;;;5.07;3.10;;;;;;;19.39;56.20;98614.59;5092275;28;20170;-62
2022/04/24 06:17:48;;;;;;;5.60;3.20;;;;;;;19.38;55.91;98613.81;5090946;28;20456;-62
2022/04/24 06:20:14;;;;;;;5.60;3.77;;;;;;;19.38;56.09;98616.69;5093352;28;20417;-62
2022/04/24 06:22:43;;;;;;;5.00;3.17;;;;;;;19.37;56.07;98612.16;5092724;28;20408;-62
2022/04/24 06:25:09;;;;;;;4.47;3.27;;;;;;;19.38;56.07;98608.09;5074387;28;20173;-62
2022/04/24 06:27:34;;;;;;;4.97;3.10;;;;;;;19.37;56.39;98626.47;5092671;28;20409;-62
2022/04/24 06:30:01;;;;;;;4.70;3.50;;;;;;;19.37;56.04;98619.97;5092961;28;20158;-62
2022/04/24 06:32:30;;;;;;;4.00;3.27;;;;;;;19.38;56.00;98624.44;5090327;28;20579;-62
2022/04/24 06:34:55;;;;;;;5.80;3.77;;;;;;;19.37;55.99;98623.63;5072650;28;20410;-62
2022/04/24 06:37:20;;;;;;;5.03;3.67;;;;;;;19.37;55.95;98628.53;5072595;28;20457;-62
2022/04/24 06:39:46;;;;;;;4.90;3.80;;;;;;;19.36;55.92;98627.72;5072704;28;20174;-62
2022/04/24 06:42:11;;;;;;;4.63;3.70;;;;;;;19.37;56.35;98625.69;5072194;28;20529;-62
2022/04/24 06:44:37;;;;;;;4.70;3.77;;;;;;;19.37;56.07;98622.81;5072356;28;20660;-62
2022/04/24 06:47:03;;;;;;;5.37;3.57;;;;;;;19.35;56.48;98623.25;5072080;28;20179;-62
2022/04/24 06:49:29;;;;;;;3.87;3.07;;;;;;;19.35;56.02;98617.50;5075062;28;20199;-62
2022/04/24 06:51:54;;;;;;;4.13;3.43;;;;;;;19.36;55.88;98616.28;5072145;28;20785;-62
2022/04/24 06:54:20;;;;;;;4.17;3.30;;;;;;;19.36;55.96;98616.28;5072326;28;20171;-62
2022/04/24 06:56:45;;;;;;;5.00;3.33;;;;;;;19.36;56.19;98613.41;5072190;28;20176;-62
2022/04/24 06:59:10;;;;;;;4.60;3.53;;;;;;;19.36;55.88;98622.00;5074744;28;20638;-62
2022/04/24 07:01:36;;;;;;;3.93;2.83;;;;;;;19.36;56.00;98633.44;5073874;28;20170;-62
2022/04/24 07:04:01;;;;;;;7.00;3.70;;;;;;;19.36;56.16;98626.94;5092629;28;20193;-62
2022/04/24 07:06:27;;;;;;;5.17;3.53;;;;;;;19.35;56.40;98631.81;5090700;28;20516;-62
2022/04/24 07:08:52;;;;;;;4.10;3.40;;;;;;;19.36;56.04;98630.59;5091883;28;20235;-62
2022/04/24 07:11:18;;;;;;;4.43;3.20;;;;;;;19.36;56.01;98639.16;5092216;28;20174;-62
2022/04/24 07:13:44;;;;;;;4.70;3.33;;;;;;;19.35;55.81;98637.56;5092225;28;20632;-62
2022/04/24 07:16:09;;;;;;;5.40;3.90;;;;;;;19.35;55.90;98640.41;5091729;28;20286;-62
2022/04/24 07:18:35;;;;;;;4.60;3.80;;;;;;;19.36;56.13;98644.88;5071782;28;20483;-62
2022/04/24 07:21:02;;;;;;;4.20;2.87;;;;;;;19.35;55.79;98651.84;5071697;28;20666;-62
2022/04/24 07:23:28;;;;;;;4.00;3.43;;;;;;;19.36;56.39;98647.75;5057603;28;20168;-62
2022/04/24 07:25:53;;;;;;;3.73;3.10;;;;;;;19.34;56.39;98644.50;5052000;28;20803;-62
2022/04/24 07:28:19;;;;;;;5.77;3.80;;;;;;;19.34;56.09;98647.38;5051653;28;20175;-62
2022/04/24 07:30:45;;;;;;;7.67;3.67;;;;;;;19.36;55.87;98652.69;5051607;28;20180;-62
2022/04/24 07:33:11;;;;;;;4.70;3.47;;;;;;;19.35;56.17;98663.31;5066821;28;20186;-62
2022/04/24 07:35:37;;;;;;;3.80;3.00;;;;;;;19.34;56.32;98661.69;5070353;28;20425;-62
2022/04/24 07:38:03;;;;;;;4.50;3.17;;;;;;;19.35;56.01;98659.63;5052018;28;20203;-62
2022/04/24 07:40:29;;;;;;;3.90;3.13;;;;;;;19.36;57.20;98662.06;5070110;28;20425;-62
2022/04/24 07:43:02;;;;;;;4.50;3.10;;;;;;;19.36;55.84;98669.84;5070107;28;20175;-62
2022/04/24 07:45:41;;;;;;;3.80;2.80;;;;;;;19.36;55.88;98667.00;5070301;28;20420;-62
2022/04/24 07:48:08;;;;;;;5.33;2.80;;;;;;;19.36;55.87;98673.50;5072613;28;20413;-62
2022/04/24 07:50:35;;;;;;;3.83;3.13;;;;;;;19.36;56.15;98679.22;5051263;28;20475;-62
2022/04/24 07:53:01;;;;;;;4.50;3.33;;;;;;;19.35;56.05;98673.94;5071627;28;20892;-62
2022/04/24 07:55:27;;;;;;;3.50;3.00;;;;;;;19.36;55.76;98682.09;5071693;28;20508;-62
2022/04/24 07:57:54;;;;;;;5.40;3.53;;;;;;;19.35;55.98;98677.59;5071394;28;20461;-61
2022/04/24 08:00:23;;;;;;;3.70;2.87;;;;;;;19.36;56.25;98684.94;5071435;28;20295;-62
2022/04/24 08:02:49;;;;;;;4.80;3.47;;;;;;;19.33;55.95;98677.22;5059438;28;20453;-62
2022/04/24 08:05:34;;;;;;;4.10;3.20;;;;;;;19.35;55.99;98683.34;5051396;28;20410;-62
2022/04/24 08:08:01;;;;;;;4.20;3.10;;;;;;;19.34;55.89;98681.72;5016874;28;20592;-62
2022/04/24 08:10:28;;;;;;;3.70;3.10;;;;;;;19.37;55.85;98682.91;5051151;28;20433;-62
2022/04/24 08:12:53;;;;;;;4.20;3.03;;;;;;;19.36;55.71;98676.38;5071301;28;20500;-62
2022/04/24 08:15:19;;;;;;;4.13;3.40;;;;;;;19.35;56.03;98680.47;5053490;28;20432;-62
2022/04/24 08:17:44;;;;;;;3.60;2.77;;;;;;;19.36;55.87;98687.81;5071017;28;20203;-62
2022/04/24 08:20:11;;;;;;;4.00;3.00;;;;;;;19.36;55.93;98679.22;5071201;28;20634;-62
2022/04/24 08:22:47;;;;;;;4.50;3.53;;;;;;;19.34;55.88;98676.00;5071616;28;20178;-62
2022/04/24 08:25:15;;;;;;;4.47;3.10;;;;;;;19.35;55.78;98674.75;5043595;28;20963;-62
2022/04/24 08:27:40;;;;;;;3.73;2.67;;;;;;;19.35;55.83;98682.50;5050999;28;20425;-62
2022/04/24 08:30:07;;;;;;;5.93;3.63;;;;;;;19.35;55.70;98683.34;5050859;28;20426;-62
2022/04/24 08:32:33;;;;;;;4.10;3.27;;;;;;;19.40;55.77;98679.19;5060415;28;20191;-62
2022/04/24 08:34:58;;;;;;;5.90;3.40;;;;;;;19.37;55.81;98677.19;5070900;28;20924;-62
2022/04/24 08:37:24;;;;;;;4.70;3.47;;;;;;;19.36;55.87;98672.72;5071290;28;20203;-62
2022/04/24 08:39:51;;;;;;;3.87;2.60;;;;;;;19.36;55.89;98678.44;5071107;28;20178;-62
2022/04/24 08:42:19;;;;;;;4.10;3.20;;;;;;;19.36;55.80;98679.22;5070892;28;20823;-62
2022/04/24 08:44:50;;;;;;;4.97;2.97;;;;;;;19.38;55.85;98690.25;5070244;28;20420;-62
2022/04/24 08:47:16;;;;;;;4.10;2.93;;;;;;;19.37;56.21;98688.63;5054206;28;20430;-62
2022/04/24 08:49:42;;;;;;;4.40;3.37;;;;;;;19.37;55.99;98688.63;5057239;28;20948;-62
2022/04/24 08:52:09;;;;;;;5.40;2.80;;;;;;;19.35;56.05;98693.94;5054574;28;20231;-62
2022/04/24 08:54:34;;;;;;;3.70;2.80;;;;;;;19.35;55.89;98693.94;5036683;28;20649;-62
2022/04/24 08:57:00;;;;;;;4.53;3.00;;;;;;;19.34;55.80;98698.06;5036401;28;20406;-62
2022/04/24 08:59:25;;;;;;;4.00;2.87;;;;;;;19.37;55.83;98697.22;5054261;28;20163;-62
2022/04/24 09:01:51;;;;;;;4.13;2.90;;;;;;;19.35;55.84;98700.50;5074077;28;20228;-62
2022/04/24 09:04:18;;;;;;;4.10;2.77;;;;;;;19.35;55.79;98706.22;5074309;28;20507;-62
2022/04/24 09:06:54;;;;;;;6.00;3.43;;;;;;;19.35;55.88;98709.09;5076041;28;20840;-62
2022/04/24 09:09:19;;;;;;;4.30;3.00;;;;;;;19.36;55.81;98710.72;5094562;28;20411;-62
2022/04/24 09:11:45;;;;;;;4.73;2.77;;;;;;;19.36;55.65;98707.06;5094210;28;20446;-62
2022/04/24 09:14:17;;;;;;;4.20;3.10;;;;;;;19.36;55.77;98718.50;5094399;28;20528;-62
2022/04/24 09:16:47;;;;;;;4.17;3.00;;;;;;;19.34;55.99;98720.94;5091536;28;20193;-62
2022/04/24 09:19:20;;;;;;;4.03;2.90;;;;;;;19.34;55.90;98710.34;5092586;28;20477;-62
2022/04/24 09:21:46;;;;;;;3.50;2.70;;;;;;;19.36;55.84;98715.63;5092878;28;20420;-62
2022/04/24 09:24:12;;;;;;;3.73;2.77;;;;;;;19.35;55.88;98720.53;5093814;28;20396;-62
2022/04/24 09:26:37;;;;;;;3.53;2.70;;;;;;;19.34;55.72;98715.22;5094133;28;21022;-62
2022/04/24 09:29:10;;;;;;;4.10;2.80;;;;;;;19.35;56.02;98722.56;5075925;28;20179;-62
2022/04/24 09:31:36;;;;;;;3.07;2.37;;;;;;;19.33;55.94;98719.34;5094019;28;20166;-62
2022/04/24 09:34:01;;;;;;;4.37;3.27;;;;;;;19.33;55.77;98725.88;5093854;28;20404;-62
2022/04/24 09:36:26;;;;;;;4.63;2.80;;;;;;;19.33;55.93;98733.63;5094032;28;20174;-62
2022/04/24 09:38:52;;;;;;;4.23;3.03;;;;;;;19.33;55.84;98731.59;5093707;28;20557;-62
2022/04/24 09:41:21;;;;;;;3.60;3.00;;;;;;;19.35;55.80;98746.28;5093388;28;20162;-62
2022/04/24 09:43:46;;;;;;;3.80;2.70;;;;;;;19.33;56.17;98736.50;5093709;28;20194;-62
2022/04/24 09:46:12;;;;;;;3.43;2.43;;;;;;;19.34;56.00;98744.66;5093616;28;20478;-62
2022/04/24 09:48:37;;;;;;;4.07;2.63;;;;;;;19.35;55.76;98739.75;5093852;28;20159;-62
2022/04/24 09:51:03;;;;;;;3.40;2.60;;;;;;;19.35;56.09;98745.47;5093342;28;20537;-62
2022/04/24 09:53:29;;;;;;;4.03;2.87;;;;;;;19.34;55.67;98755.28;5093563;28;20170;-62
2022/04/24 09:55:54;;;;;;;3.43;2.53;;;;;;;19.34;56.20;98755.28;5093500;28;20170;-62
2022/04/24 09:58:23;;;;;;;5.73;2.80;;;;;;;19.34;56.23;98761.84;5093297;28;20440;-62
2022/04/24 10:00:50;;;;;;;4.90;3.10;;;;;;;19.34;55.81;98761.84;5092671;28;20178;-62
2022/04/24 10:03:16;;;;;;;3.00;2.43;;;;;;;19.34;55.75;98758.16;5060014;28;20918;-62
2022/04/24 10:05:51;;;;;;;3.23;2.70;;;;;;;19.33;55.91;98757.34;5073112;28;20420;-62
2022/04/24 10:08:18;;;;;;;3.40;2.40;;;;;;;19.33;56.15;98765.13;5072973;28;20480;-62
2022/04/24 10:10:43;;;;;;;3.10;2.37;;;;;;;19.32;55.92;98761.44;5078832;28;20515;-62
2022/04/24 10:13:10;;;;;;;3.43;2.43;;;;;;;19.35;55.98;98768.34;5093214;28;20563;-62
2022/04/24 10:15:46;;;;;;;3.97;2.70;;;;;;;19.35;55.70;98766.31;5075243;28;20181;-62
2022/04/24 10:18:32;;;;;;;4.10;2.80;;;;;;;19.34;55.53;98764.69;5073957;28;20505;-62
2022/04/24 10:20:57;;;;;;;3.73;2.60;;;;;;;19.33;56.50;98765.94;5092755;28;20416;-62
2022/04/24 10:23:29;;;;;;;3.20;2.30;;;;;;;19.34;56.09;98764.69;5093231;28;20484;-62
2022/04/24 10:25:55;;;;;;;3.93;2.73;;;;;;;19.34;55.84;98767.56;5092892;28;20193;-62
2022/04/24 10:28:20;;;;;;;3.80;2.70;;;;;;;19.34;55.85;98761.84;5074929;28;20389;-62
2022/04/24 10:30:57;;;;;;;2.80;2.10;;;;;;;19.34;55.82;98772.47;5092631;28;20304;-62
2022/04/24 10:33:28;;;;;;;3.67;2.53;;;;;;;19.32;55.94;98772.88;5093278;28;20546;-61
2022/04/24 10:35:57;;;;;;;3.43;2.33;;;;;;;19.33;55.70;98765.94;5092555;28;20416;-61
2022/04/24 10:38:23;;;;;;;3.13;2.57;;;;;;;19.34;55.62;98770.44;5090246;28;20563;-61
2022/04/24 10:41:02;;;;;;;3.63;2.77;;;;;;;19.35;55.84;98774.91;5072432;28;20495;-62
2022/04/24 10:43:38;;;;;;;3.57;2.77;;;;;;;19.33;55.83;98771.66;5090581;28;20247;-62
2022/04/24 10:46:16;;;;;;;3.63;2.57;;;;;;;19.33;55.93;98779.44;5092244;28;20443;-62
2022/04/24 10:48:41;;;;;;;3.47;2.47;;;;;;;19.33;55.36;98779.44;5090251;28;20491;-62
2022/04/24 10:51:06;;;;;;;4.10;2.73;;;;;;;19.33;55.58;98776.56;5074270;28;21198;-62
2022/04/24 10:53:51;;;;;;;3.57;2.30;;;;;;;19.33;55.95;98780.25;5092677;28;20170;-62
2022/04/24 10:56:17;;;;;;;3.13;1.97;;;;;;;19.31;56.06;98776.97;5092418;28;20177;-62
2022/04/24 10:58:42;;;;;;;4.10;2.93;;;;;;;19.33;55.91;98776.56;5092680;28;20456;-62
2022/04/24 11:01:14;;;;;;;3.33;2.50;;;;;;;19.33;56.11;98782.28;5092265;28;20690;-62
2022/04/24 11:03:40;;;;;;;3.70;2.43;;;;;;;19.32;56.11;98781.47;5092514;28;20187;-62
2022/04/24 11:06:23;;;;;;;2.93;2.27;;;;;;;19.31;55.77;98774.13;5092048;28;20413;-62
2022/04/24 11:08:50;;;;;;;2.90;2.17;;;;;;;19.33;55.64;98776.56;5092188;28;21088;-62
2022/04/24 11:11:15;;;;;;;3.33;2.40;;;;;;;19.32;55.82;98772.88;5090918;28;20424;-62
2022/04/24 11:13:41;;;;;;;3.00;2.30;;;;;;;19.34;55.98;98779.00;5092483;28;20409;-62
2022/04/24 11:16:07;;;;;;;3.30;2.47;;;;;;;19.33;55.65;98782.28;5091856;28;20158;-62
2022/04/24 11:18:32;;;;;;;4.07;2.30;;;;;;;19.32;55.68;98781.47;5072008;28;20194;-62
2022/04/24 11:21:03;;;;;;;2.80;2.03;;;;;;;19.32;55.75;98786.41;5071562;28;20527;-62
2022/04/24 11:23:33;;;;;;;3.10;2.23;;;;;;;19.31;55.87;98787.63;5071870;28;20181;-62
2022/04/24 11:25:59;;;;;;;3.03;2.17;;;;;;;19.32;55.82;98792.13;5071727;28;20428;-62
2022/04/24 11:28:56;;;;;;;3.43;2.13;;;;;;;19.32;55.82;98792.13;5054072;28;20409;-62
2022/04/24 11:31:22;;;;;;;6.23;2.27;;;;;;;19.32;55.95;98794.97;5025315;28;20490;-62